ENG CAT
Escuela de Pilotos
Teléfono 972234126 972 23 41 26
 

Información meteorológica aeronáutica

 

En este apartado aparece la información meteorológica aeronáutica que es utilizada en las prácticas de los alumnos de la Escuela de Pilotos de nuestro centro durante su formación, por lo que puede no ser actual y se debería utilizar por su propia cuenta y riesgo. AERBRAVA no se hace responsable de su uso.

 

TIEMPO ACTUAL

Cargando..

sat24.com

Servei Meteorològic de Catalunya

 

LEGE 230830Z 18004KT 120V210 CAVOK 25/19 Q1020 NOSIG
LEGE 230800Z VRB02KT CAVOK 24/17 Q1020 NOSIG
LEGE 230730Z 18001KT CAVOK 23/16 Q1020 NOSIG
LEGE 230700Z VRB01KT 9999 FEW030 22/16 Q1020 NOSIG
LEGE 230630Z VRB01KT 9999 FEW040 20/16 Q1020 NOSIG
LEGE 230600Z VRB01KT 9999 FEW035 19/16 Q1020 NOSIG
LEGE 230530Z 00000KT 9999 FEW045 18/16 Q1020 NOSIG
LEGE 230500Z 27003KT CAVOK 17/15 Q1020 NOSIG
LEGE 230430Z VRB01KT CAVOK 17/15 Q1020 NOSIG
LEGE 230400Z 00000KT CAVOK 17/15 Q1019 NOSIG
LEGE 230330Z 05002KT CAVOK 16/15 Q1019 NOSIG
LEGE 230300Z 00000KT CAVOK 17/15 Q1019 NOSIG

TAF LEGE 230500Z 2306/2406 VRB04KT 9999 FEW030 TX36/2313Z TN20/2405Z
TEMPO 2311/2318 18010KT

Aviation Weather

 
Aerbrava en el facebook Aerbrava en el twitter Aerbrava instagram
No utilizamos cookies, no recabamos ni cedemos datos de carácter personal de los usuarios. Click AQUÍ, para más información sobre la Política de Cookies.

¡html Vàlid! ¡CSS Vàlid!